地図

経路データ

SID SEASON NUMBER BASIN SUBBASIN NAME ISO_TIME NATURE LAT LON WMO_WIND WMO_PRES WMO_AGENCY TRACK_TYPE DIST2LAND LANDFALL IFLAG USA_AGENCY USA_ATCF_ID USA_LAT USA_LON USA_RECORD USA_STATUS USA_WIND USA_PRES USA_SSHS USA_R34_NE USA_R34_SE USA_R34_SW USA_R34_NW USA_R50_NE USA_R50_SE USA_R50_SW USA_R50_NW USA_R64_NE USA_R64_SE USA_R64_SW USA_R64_NW USA_POCI USA_ROCI USA_RMW USA_EYE TOKYO_LAT TOKYO_LON TOKYO_GRADE TOKYO_WIND TOKYO_PRES TOKYO_R50_DIR TOKYO_R50_LONG TOKYO_R50_SHORT TOKYO_R30_DIR TOKYO_R30_LONG TOKYO_R30_SHORT TOKYO_LAND CMA_LAT CMA_LON CMA_CAT CMA_WIND CMA_PRES HKO_LAT HKO_LON HKO_CAT HKO_WIND HKO_PRES NEWDELHI_LAT NEWDELHI_LON NEWDELHI_GRADE NEWDELHI_WIND NEWDELHI_PRES NEWDELHI_CI NEWDELHI_DP NEWDELHI_POCI REUNION_LAT REUNION_LON REUNION_TYPE REUNION_WIND REUNION_PRES REUNION_TNUM REUNION_CI REUNION_RMW REUNION_R34_NE REUNION_R34_SE REUNION_R34_SW REUNION_R34_NW REUNION_R50_NE REUNION_R50_SE REUNION_R50_SW REUNION_R50_NW REUNION_R64_NE REUNION_R64_SE REUNION_R64_SW REUNION_R64_NW BOM_LAT BOM_LON BOM_TYPE BOM_WIND BOM_PRES BOM_TNUM BOM_CI BOM_RMW BOM_R34_NE BOM_R34_SE BOM_R34_SW BOM_R34_NW BOM_R50_NE BOM_R50_SE BOM_R50_SW BOM_R50_NW BOM_R64_NE BOM_R64_SE BOM_R64_SW BOM_R64_NW BOM_ROCI BOM_POCI BOM_EYE BOM_POS_METHOD BOM_PRES_METHOD NADI_LAT NADI_LON NADI_CAT NADI_WIND NADI_PRES WELLINGTON_LAT WELLINGTON_LON WELLINGTON_WIND WELLINGTON_PRES DS824_LAT DS824_LON DS824_STAGE DS824_WIND DS824_PRES TD9636_LAT TD9636_LON TD9636_STAGE TD9636_WIND TD9636_PRES TD9635_LAT TD9635_LON TD9635_WIND TD9635_PRES TD9635_ROCI NEUMANN_LAT NEUMANN_LON NEUMANN_CLASS NEUMANN_WIND NEUMANN_PRES MLC_LAT MLC_LON MLC_CLASS MLC_WIND MLC_PRES USA_GUST BOM_GUST BOM_GUST_PER REUNION_GUST REUNION_GUST_PER USA_SEAHGT USA_SEARAD_NE USA_SEARAD_SE USA_SEARAD_SW USA_SEARAD_NW STORM_SPEED STORM_DIR
1924283N15126 1924 43 WP MM NOT_NAMED 1924-10-08 22:00:00 NR 15.3000 126.400 main 266 255 __________O___ -1 15.3000 126.400 4 17 310
1924283N15126 1924 43 WP MM NOT_NAMED 1924-10-09 00:00:00 NR 15.6523 125.960 main 263 249 __________P___ -1 15.6523 125.960 4 17 310
1924283N15126 1924 43 WP MM NOT_NAMED 1924-10-09 03:00:00 NR 16.1792 125.301 main 268 224 __________P___ -1 16.1792 125.301 4 16 310
1924283N15126 1924 43 WP MM NOT_NAMED 1924-10-09 06:00:00 NR 16.7038 124.648 main 224 161 __________P___ -1 16.7038 124.648 4 16 310
1924283N15126 1924 43 WP MM NOT_NAMED 1924-10-09 09:00:00 NR 17.2263 124.009 main 161 145 __________P___ -1 17.2263 124.009 4 16 311
1924283N15126 1924 43 WP MM NOT_NAMED 1924-10-09 10:00:00 NR 17.4000 123.800 main 145 115 __________O___ -1 17.4000 123.800 4 16 311
1924283N15126 1924 43 WP MM NOT_NAMED 1924-10-09 12:00:00 NR 17.7455 123.389 main 115 53 __________P___ -1 17.7455 123.389 4 15 311
1924283N15126 1924 43 WP MM NOT_NAMED 1924-10-09 15:00:00 NR 18.2459 122.791 main 53 15 __________P___ -1 18.2459 122.791 4 15 311
1924283N15126 1924 43 WP MM NOT_NAMED 1924-10-09 18:00:00 NR 18.7026 122.219 main 33 33 __________P___ -1 18.7026 122.219 4 14 309
1924283N15126 1924 43 WP MM NOT_NAMED 1924-10-09 21:00:00 NR 19.0904 121.675 main 74 70 __________P___ -1 19.0904 121.675 4 13 306
1924283N15126 1924 43 WP MM NOT_NAMED 1924-10-09 22:00:00 NR 19.2000 121.500 main 79 78 __________O___ -1 19.2000 121.500 4 11 299
1924283N15126 1924 43 WP MM NOT_NAMED 1924-10-10 00:00:00 NR 19.3712 121.146 main 91 90 __________P___ -1 19.3712 121.146 4 11 294
1924283N15126 1924 43 WP MM NOT_NAMED 1924-10-10 03:00:00 NR 19.5589 120.641 main 113 113 __________P___ -1 19.5589 120.641 4 10 290
1924283N15126 1924 43 WP MM NOT_NAMED 1924-10-10 06:00:00 NR 19.7023 120.170 main 138 143 __________P___ -1 19.7023 120.170 4 9 289
1924283N15126 1924 43 WP MM NOT_NAMED 1924-10-10 09:00:00 NR 19.8450 119.736 main 177 185 __________P___ -1 19.8450 119.736 4 9 290
1924283N15126 1924 43 WP MM NOT_NAMED 1924-10-10 10:00:00 NR 19.9000 119.600 main 192 192 __________O___ -1 19.9000 119.600 4 8 296
1924283N15126 1924 43 WP MM NOT_NAMED 1924-10-10 12:00:00 NR 20.0278 119.340 main 222 222 __________P___ -1 20.0278 119.340 4 8 301
1924283N15126 1924 43 WP MM NOT_NAMED 1924-10-10 15:00:00 NR 20.2580 118.977 main 251 251 __________P___ -1 20.2580 118.977 4 8 307
1924283N15126 1924 43 WP MM NOT_NAMED 1924-10-10 18:00:00 NR 20.5217 118.637 main 268 261 __________P___ -1 20.5217 118.637 4 8 311
1924283N15126 1924 43 WP MM NOT_NAMED 1924-10-10 21:00:00 NR 20.8042 118.308 main 277 272 __________P___ -1 20.8042 118.308 4 8 313
1924283N15126 1924 43 WP MM NOT_NAMED 1924-10-10 22:00:00 NR 20.9000 118.200 main 281 __________O___ -1 20.9000 118.200 4 8 312

デジタル台風データ・検索

IBTrACS Databaseについて

本データベースは、米国NOAAが公開する1842年以降の世界の熱帯低気圧のベストトラックデータアーカイブInternational Best Track Archive for Climate Stewardship (IBTrACS)を、ウェブで閲覧しやすい形式に変換したものです。

最終更新日:2021-10-19